Time;durP1;ratioP1;P1;durP2;ratioP2;P2;SDS_P1;SDS_P2;PMS_P1;PMS_P2;Temp;Humidity;BMP_temperature;BMP_pressure;BME280_temperature;BME280_humidity;BME280_pressure;Samples;Min_cycle;Max_cycle;Signal;HPM_P1;HPM_P2
2021/05/14 00:02:25;;;;;;;1.90;1.80;;;9.60;99.90;;;;;;6146697;23;20444;-88
2021/05/14 00:04:54;;;;;;;1.97;1.87;;;9.60;99.90;;;;;;6146899;23;20613;-89
2021/05/14 00:07:27;;;;;;;1.87;1.77;;;9.50;99.90;;;;;;6146107;23;20425;-90
2021/05/14 00:09:54;;;;;;;2.70;1.63;;;9.50;99.90;;;;;;6146528;23;20409;-91
2021/05/14 00:12:20;;;;;;;1.80;1.70;;;9.50;99.90;;;;;;6148154;23;20709;-89
2021/05/14 00:14:46;;;;;;;1.80;1.70;;;9.50;99.90;;;;;;6145738;23;20399;-91
2021/05/14 00:17:12;;;;;;;1.37;1.30;;;9.50;99.90;;;;;;6145918;23;20246;-89
2021/05/14 00:19:38;;;;;;;2.30;1.87;;;9.50;99.90;;;;;;6122193;23;20435;-89
2021/05/14 00:22:03;;;;;;;3.03;2.10;;;9.50;99.90;;;;;;6145453;23;20197;-91
2021/05/14 00:24:29;;;;;;;2.00;1.90;;;9.40;99.90;;;;;;6146283;23;20496;-90
2021/05/14 00:26:55;;;;;;;4.90;2.20;;;9.40;99.90;;;;;;6143486;23;20193;-88
2021/05/14 00:29:21;;;;;;;4.53;2.00;;;9.40;99.90;;;;;;6145342;23;21004;-90
2021/05/14 00:31:46;;;;;;;2.77;2.17;;;9.40;99.90;;;;;;6145566;23;20582;-90
2021/05/14 00:34:12;;;;;;;2.83;2.30;;;9.40;99.90;;;;;;6146673;23;20194;-91
2021/05/14 00:36:38;;;;;;;1.93;1.83;;;9.40;99.90;;;;;;6145406;23;20171;-90
2021/05/14 00:39:04;;;;;;;2.40;1.90;;;9.30;99.90;;;;;;6146217;23;20645;-90
2021/05/14 00:41:31;;;;;;;1.80;1.70;;;9.30;99.90;;;;;;6146452;23;20632;-91
2021/05/14 00:43:57;;;;;;;1.70;1.60;;;9.40;99.90;;;;;;6145407;23;20391;-92
2021/05/14 00:46:24;;;;;;;2.00;1.87;;;9.30;99.90;;;;;;6145274;23;20865;-90
2021/05/14 00:48:49;;;;;;;2.10;2.00;;;9.30;99.90;;;;;;6146192;23;20172;-90
2021/05/14 00:51:15;;;;;;;1.83;1.73;;;9.30;99.90;;;;;;6146284;23;20455;-90
2021/05/14 00:53:41;;;;;;;2.40;1.60;;;9.30;99.90;;;;;;6144854;23;20590;-91
2021/05/14 00:56:07;;;;;;;1.70;1.60;;;9.30;99.90;;;;;;6146485;23;20257;-92
2021/05/14 00:58:34;;;;;;;1.43;1.33;;;9.20;99.90;;;;;;6146215;23;20161;-92
2021/05/14 01:01:00;;;;;;;1.70;1.60;;;9.20;99.90;;;;;;6144694;23;20434;-91
2021/05/14 01:03:26;;;;;;;1.57;1.50;;;9.20;99.90;;;;;;6096977;23;20719;-92
2021/05/14 01:05:52;;;;;;;1.63;1.53;;;9.30;99.90;;;;;;6121825;23;20160;-92
2021/05/14 01:08:17;;;;;;;2.03;1.93;;;9.20;99.90;;;;;;6121801;23;20246;-90
2021/05/14 01:10:43;;;;;;;1.80;1.70;;;9.20;99.90;;;;;;6121372;23;20233;-90
2021/05/14 01:13:09;;;;;;;1.67;1.57;;;9.30;99.90;;;;;;6121257;23;20174;-90
2021/05/14 01:15:37;;;;;;;2.47;1.80;;;9.20;99.90;;;;;;6121397;23;20536;-90
2021/05/14 01:18:03;;;;;;;1.90;1.80;;;9.20;99.90;;;;;;6121700;23;20196;-90
2021/05/14 01:20:31;;;;;;;1.50;1.40;;;9.10;99.90;;;;;;6120936;23;20394;-90
2021/05/14 01:22:57;;;;;;;1.90;1.80;;;9.10;99.90;;;;;;6121791;23;20789;-91
2021/05/14 01:25:23;;;;;;;2.70;1.50;;;9.00;99.90;;;;;;6120911;23;20434;-90
2021/05/14 01:27:48;;;;;;;1.20;1.20;;;9.00;99.90;;;;;;6121885;23;20410;-91
2021/05/14 01:30:15;;;;;;;1.60;1.40;;;9.00;99.90;;;;;;6120400;23;20543;-91
2021/05/14 01:32:49;;;;;;;1.90;1.60;;;9.00;99.90;;;;;;6121872;23;20166;-91
2021/05/14 01:35:15;;;;;;;1.80;1.70;;;9.00;99.90;;;;;;6121445;23;20468;-91
2021/05/14 01:37:41;;;;;;;2.03;1.43;;;8.90;99.90;;;;;;6119657;23;20965;-91
2021/05/14 01:40:07;;;;;;;1.70;1.60;;;8.90;99.90;;;;;;6121063;23;20676;-90
2021/05/14 01:42:33;;;;;;;3.40;1.67;;;8.80;99.90;;;;;;6123164;23;20475;-90
2021/05/14 01:44:59;;;;;;;2.23;1.63;;;8.80;99.90;;;;;;6123058;23;20716;-91
2021/05/14 01:47:26;;;;;;;3.30;1.53;;;8.80;99.90;;;;;;6123006;23;20175;-91
2021/05/14 01:52:33;;;;;;;1.73;1.63;;;8.80;99.90;;;;;;6126240;23;20389;-90
2021/05/14 01:55:00;;;;;;;2.40;1.47;;;8.70;99.90;;;;;;6122083;23;20876;-90
2021/05/14 01:57:46;;;;;;;1.53;1.43;;;8.60;99.90;;;;;;6122998;23;20397;-90
2021/05/14 02:00:12;;;;;;;1.40;1.30;;;8.60;99.90;;;;;;6122741;23;20416;-90
2021/05/14 02:02:54;;;;;;;1.47;1.40;;;8.60;99.90;;;;;;6140765;23;20776;-91
2021/05/14 02:05:20;;;;;;;1.60;1.50;;;8.50;99.90;;;;;;6146777;23;20399;-91
2021/05/14 02:07:47;;;;;;;1.70;1.27;;;8.40;99.90;;;;;;6147921;23;20402;-91
2021/05/14 02:10:13;;;;;;;1.57;1.47;;;8.30;99.90;;;;;;6147157;23;20181;-90
2021/05/14 02:12:39;;;;;;;1.63;1.53;;;8.20;99.90;;;;;;6147282;23;20492;-90
2021/05/14 02:15:06;;;;;;;2.70;2.00;;;8.20;99.90;;;;;;6147785;23;20401;-91
2021/05/14 02:17:32;;;;;;;1.80;1.70;;;8.30;99.90;;;;;;6147591;23;20425;-90
2021/05/14 02:20:08;;;;;;;3.67;1.77;;;8.30;99.90;;;;;;6147976;23;20890;-92
2021/05/14 02:22:34;;;;;;;2.03;1.93;;;8.20;99.90;;;;;;6123583;23;20455;-92
2021/05/14 02:25:03;;;;;;;2.33;2.10;;;8.20;99.90;;;;;;6149509;23;20473;-91
2021/05/14 02:27:29;;;;;;;2.27;1.83;;;8.10;99.90;;;;;;6123609;23;20408;-91
2021/05/14 02:29:54;;;;;;;2.10;1.80;;;8.10;99.90;;;;;;6147196;23;20681;-91
2021/05/14 02:32:22;;;;;;;2.17;1.97;;;8.10;99.90;;;;;;6147435;23;20479;-90
2021/05/14 02:34:48;;;;;;;2.00;1.90;;;8.00;99.90;;;;;;6146840;23;20164;-90
2021/05/14 02:37:14;;;;;;;2.07;1.70;;;8.00;99.90;;;;;;6147436;23;20574;-90
2021/05/14 02:39:39;;;;;;;1.67;1.57;;;7.90;99.90;;;;;;6147489;23;20405;-90
2021/05/14 02:44:59;;;;;;;1.73;1.63;;;8.00;99.90;;;;;;6149199;23;20169;-89
2021/05/14 02:47:27;;;;;;;2.33;2.13;;;7.90;99.90;;;;;;6146968;23;20404;-90
2021/05/14 02:49:52;;;;;;;2.80;1.90;;;8.00;99.90;;;;;;6148235;23;20161;-90
2021/05/14 02:52:20;;;;;;;2.50;2.30;;;7.80;99.90;;;;;;6146924;23;20401;-90
2021/05/14 02:54:45;;;;;;;1.97;1.87;;;7.90;99.90;;;;;;6146030;23;20163;-90
2021/05/14 02:57:11;;;;;;;2.03;1.90;;;7.90;99.90;;;;;;6146390;23;20400;-91
2021/05/14 02:59:37;;;;;;;1.87;1.77;;;7.90;99.90;;;;;;6147076;23;20246;-91
2021/05/14 03:02:03;;;;;;;2.17;2.03;;;7.90;99.90;;;;;;6147365;23;20448;-92
2021/05/14 03:04:28;;;;;;;2.13;2.00;;;7.80;99.90;;;;;;6148639;23;20285;-91
2021/05/14 03:06:54;;;;;;;1.80;1.70;;;7.70;99.90;;;;;;6147294;23;20165;-90
2021/05/14 03:09:20;;;;;;;2.10;2.00;;;7.60;99.90;;;;;;6146973;23;20466;-90
2021/05/14 03:11:45;;;;;;;2.83;2.40;;;7.70;99.90;;;;;;6147182;23;20618;-90
2021/05/14 03:14:11;;;;;;;2.50;2.30;;;7.70;99.90;;;;;;6146641;23;20604;-91
2021/05/14 03:16:37;;;;;;;1.90;1.80;;;7.70;99.90;;;;;;6146220;23;20553;-91
2021/05/14 03:19:03;;;;;;;2.33;2.13;;;7.70;99.90;;;;;;6146908;23;20165;-91
2021/05/14 03:21:31;;;;;;;2.47;2.27;;;7.70;99.90;;;;;;6147266;23;20192;-91
2021/05/14 03:23:57;;;;;;;2.80;1.93;;;7.70;99.90;;;;;;6147895;23;20720;-91
2021/05/14 03:26:23;;;;;;;2.20;2.10;;;7.70;99.90;;;;;;6147009;23;20484;-90
2021/05/14 03:28:49;;;;;;;2.10;2.00;;;7.70;99.90;;;;;;6146490;23;20427;-91
2021/05/14 03:31:14;;;;;;;2.57;2.17;;;7.70;99.90;;;;;;6146967;23;20169;-91
2021/05/14 03:33:40;;;;;;;2.47;2.27;;;7.70;99.90;;;;;;6146971;23;20223;-91
2021/05/14 03:36:06;;;;;;;2.80;2.37;;;7.70;99.90;;;;;;6146822;23;20192;-90
2021/05/14 03:38:33;;;;;;;3.00;2.80;;;7.80;99.90;;;;;;6146421;23;20212;-90
2021/05/14 03:41:05;;;;;;;2.60;2.40;;;7.70;99.90;;;;;;6146817;23;20193;-90
2021/05/14 03:43:30;;;;;;;2.20;2.10;;;7.70;99.90;;;;;;6147241;23;20898;-91
2021/05/14 03:45:57;;;;;;;4.60;1.67;;;7.70;99.90;;;;;;6146061;23;20401;-91
2021/05/14 03:48:24;;;;;;;2.33;2.03;;;7.70;99.90;;;;;;6146622;23;20774;-91
2021/05/14 03:50:52;;;;;;;1.83;1.73;;;7.70;99.90;;;;;;6146881;23;20435;-91
2021/05/14 03:53:21;;;;;;;2.47;2.27;;;7.70;99.90;;;;;;6146588;23;20742;-91
2021/05/14 03:55:50;;;;;;;2.00;1.80;;;7.60;99.90;;;;;;6147267;23;20407;-91
2021/05/14 03:58:22;;;;;;;2.43;1.90;;;7.60;99.90;;;;;;6138476;23;20401;-95
2021/05/14 04:00:49;;;;;;;2.30;2.00;;;7.60;99.90;;;;;;6147902;23;20791;-91
2021/05/14 04:03:15;;;;;;;2.40;2.20;;;7.60;99.90;;;;;;6145870;23;20428;-92
2021/05/14 04:05:41;;;;;;;4.53;2.20;;;7.60;99.90;;;;;;6146175;23;20401;-90
2021/05/14 04:08:07;;;;;;;2.60;2.40;;;7.50;99.90;;;;;;6146933;23;20879;-90
2021/05/14 04:10:51;;;;;;;3.53;2.60;;;7.40;99.90;;;;;;6146269;23;20411;-89
2021/05/14 04:16:06;;;;;;;4.80;2.07;;;7.30;99.90;;;;;;6147594;23;20391;-91
2021/05/14 04:18:33;;;;;;;1.93;1.83;;;7.40;99.90;;;;;;6148034;23;20393;-94
2021/05/14 04:20:59;;;;;;;2.10;1.97;;;7.50;99.90;;;;;;6146343;23;20432;-94
2021/05/14 04:23:24;;;;;;;3.57;2.23;;;7.50;99.90;;;;;;6148366;23;20392;-93
2021/05/14 04:25:50;;;;;;;2.07;1.97;;;7.50;99.90;;;;;;6148535;23;20220;-92
2021/05/14 04:28:16;;;;;;;3.13;2.50;;;7.40;99.90;;;;;;6149956;23;20163;-92
2021/05/14 04:30:42;;;;;;;2.10;2.00;;;7.40;99.90;;;;;;6151252;23;20165;-91
2021/05/14 04:33:07;;;;;;;2.30;1.97;;;7.40;99.90;;;;;;6146376;23;20392;-92
2021/05/14 04:35:34;;;;;;;2.40;2.20;;;7.40;99.90;;;;;;6139339;23;20248;-93
2021/05/14 04:38:01;;;;;;;2.97;2.33;;;7.50;99.90;;;;;;6144318;23;20369;-96
2021/05/14 04:40:27;;;;;;;2.20;2.00;;;7.50;99.90;;;;;;6120536;23;20564;-84
2021/05/14 04:42:54;;;;;;;2.93;2.60;;;7.50;99.90;;;;;;6144370;23;20746;-85
2021/05/14 04:45:20;;;;;;;2.80;2.40;;;7.40;99.90;;;;;;6145215;23;20296;-91
2021/05/14 04:48:05;;;;;;;2.03;1.93;;;7.40;99.90;;;;;;6141635;23;20416;-88
2021/05/14 04:50:32;;;;;;;4.33;2.30;;;7.50;99.90;;;;;;6144651;23;20248;-89
2021/05/14 04:53:05;;;;;;;2.40;2.20;;;7.50;99.90;;;;;;6119666;23;20443;-89
2021/05/14 04:55:32;;;;;;;2.67;2.17;;;7.60;99.90;;;;;;6142587;23;20401;-90
2021/05/14 04:57:58;;;;;;;4.43;4.03;;;7.80;99.90;;;;;;6120051;23;20989;-88
2021/05/14 05:00:24;;;;;;;12.87;11.57;;;7.80;99.90;;;;;;6144195;23;20413;-87
2021/05/14 05:02:51;;;;;;;4.30;3.43;;;7.90;99.90;;;;;;6143731;23;20835;-89
2021/05/14 05:05:18;;;;;;;3.67;2.87;;;8.00;99.90;;;;;;6144466;23;20403;-90
2021/05/14 05:07:44;;;;;;;2.60;2.40;;;8.10;99.90;;;;;;6142173;23;20448;-90
2021/05/14 05:10:10;;;;;;;2.77;2.30;;;8.10;99.90;;;;;;6145016;23;20399;-86
2021/05/14 05:12:35;;;;;;;4.67;2.40;;;8.20;99.90;;;;;;6144895;23;20396;-87
2021/05/14 05:15:01;;;;;;;2.23;2.00;;;8.30;99.90;;;;;;6144975;23;20459;-91
2021/05/14 05:17:27;;;;;;;3.40;3.10;;;8.30;99.90;;;;;;6144998;23;20204;-85
2021/05/14 05:22:33;;;;;;;2.03;1.83;;;8.40;99.90;;;;;;6148087;23;20448;-90
2021/05/14 05:25:13;;;;;;;3.00;2.03;;;8.50;99.90;;;;;;6147272;23;20732;-88
2021/05/14 05:28:14;;;;;;;4.90;2.53;;;8.60;99.90;;;;;;6146225;23;20954;-88
2021/05/14 05:30:40;;;;;;;3.23;2.03;;;8.70;99.90;;;;;;6145580;23;20404;-88
2021/05/14 05:33:11;;;;;;;3.13;2.10;;;8.80;99.90;;;;;;6146084;23;20409;-91
2021/05/14 05:35:41;;;;;;;2.33;1.83;;;8.90;99.90;;;;;;6147157;23;20397;-93
2021/05/14 05:38:21;;;;;;;2.70;1.90;;;9.00;99.90;;;;;;6147395;23;20397;-92
2021/05/14 05:40:47;;;;;;;3.23;1.83;;;9.00;99.90;;;;;;6145146;23;20437;-91
2021/05/14 05:43:30;;;;;;;2.30;2.10;;;9.20;99.90;;;;;;6145356;23;20406;-92
2021/05/14 05:46:02;;;;;;;2.20;2.00;;;9.40;99.90;;;;;;6146481;23;20486;-96
2021/05/14 05:48:27;;;;;;;1.80;1.70;;;9.50;99.90;;;;;;6147441;23;20783;-91
2021/05/14 05:50:53;;;;;;;1.90;1.77;;;9.60;99.90;;;;;;6139388;23;20397;-92
2021/05/14 05:53:30;;;;;;;3.10;1.90;;;9.60;99.90;;;;;;6149022;23;20459;-91
2021/05/14 05:55:55;;;;;;;9.20;3.13;;;9.80;99.90;;;;;;6147340;23;20195;-92
2021/05/14 05:58:21;;;;;;;2.33;2.10;;;10.00;99.90;;;;;;6150377;23;20403;-94
2021/05/14 06:00:47;;;;;;;4.10;1.87;;;10.10;99.90;;;;;;6148094;23;20215;-96
2021/05/14 06:03:14;;;;;;;2.70;1.30;;;10.10;99.90;;;;;;6146128;23;20191;-92
2021/05/14 06:05:42;;;;;;;1.70;1.60;;;10.20;99.90;;;;;;6148942;23;20412;-95
2021/05/14 06:08:08;;;;;;;1.67;1.30;;;10.20;99.90;;;;;;6144748;23;20398;-93
2021/05/14 06:10:35;;;;;;;2.00;1.60;;;10.20;99.90;;;;;;6144415;23;20408;-93
2021/05/14 06:13:04;;;;;;;2.63;1.60;;;10.30;99.90;;;;;;6144635;23;20716;-92
2021/05/14 06:15:29;;;;;;;2.17;1.97;;;10.30;99.90;;;;;;6146536;23;20421;-92
2021/05/14 06:17:55;;;;;;;1.90;1.70;;;10.30;99.90;;;;;;6147367;23;20757;-92
2021/05/14 06:20:23;;;;;;;2.73;1.73;;;10.40;99.90;;;;;;6146621;23;20157;-92
2021/05/14 06:22:49;;;;;;;1.77;1.67;;;10.30;99.90;;;;;;6146685;23;20255;-93
2021/05/14 06:25:15;;;;;;;3.23;1.60;;;10.30;99.90;;;;;;6147538;23;20749;-92
2021/05/14 06:27:41;;;;;;;2.40;1.70;;;10.40;99.90;;;;;;6146794;23;20172;-92
2021/05/14 06:30:07;;;;;;;2.00;1.70;;;10.50;99.90;;;;;;6147915;23;20169;-92
2021/05/14 06:32:33;;;;;;;2.83;1.73;;;10.70;99.90;;;;;;6149821;23;20603;-92
2021/05/14 06:34:59;;;;;;;2.03;1.80;;;10.90;99.90;;;;;;6149767;23;20397;-93
2021/05/14 06:37:25;;;;;;;1.60;1.50;;;11.10;99.90;;;;;;6149529;23;20709;-93
2021/05/14 06:39:50;;;;;;;2.67;1.87;;;11.00;99.90;;;;;;6150148;23;20157;-93
2021/05/14 06:42:16;;;;;;;1.60;1.50;;;11.10;99.90;;;;;;6147807;23;20201;-93
2021/05/14 06:44:42;;;;;;;6.33;1.60;;;11.10;99.90;;;;;;6149028;23;20167;-90
2021/05/14 06:47:08;;;;;;;6.60;2.50;;;11.20;99.90;;;;;;6149824;23;20181;-93
2021/05/14 06:49:33;;;;;;;3.80;2.03;;;11.30;99.90;;;;;;6147950;23;20389;-93
2021/05/14 06:51:59;;;;;;;2.73;1.33;;;11.50;99.90;;;;;;6150418;23;20252;-94
2021/05/14 06:54:25;;;;;;;5.30;2.00;;;11.50;99.90;;;;;;6147297;23;20160;-93
2021/05/14 06:56:51;;;;;;;1.63;1.50;;;11.60;99.90;;;;;;6148380;23;20616;-94
2021/05/14 06:59:18;;;;;;;7.60;1.87;;;11.70;99.90;;;;;;6148145;23;20486;-93
2021/05/14 07:02:00;;;;;;;7.03;1.67;;;11.80;99.90;;;;;;6147715;23;20444;-94
2021/05/14 07:04:54;;;;;;;8.00;3.10;;;11.90;99.90;;;;;;6148889;23;20425;-92
2021/05/14 07:07:26;;;;;;;1.80;1.20;;;12.00;99.90;;;;;;6147450;23;20435;-93
2021/05/14 07:10:02;;;;;;;2.87;1.53;;;12.00;99.90;;;;;;6149452;23;20435;-92
2021/05/14 07:12:35;;;;;;;4.37;1.80;;;12.10;99.90;;;;;;6148150;23;20392;-95
2021/05/14 07:15:02;;;;;;;1.93;1.27;;;12.30;99.90;;;;;;6129128;23;20432;-94
2021/05/14 07:17:28;;;;;;;1.70;1.50;;;12.30;99.90;;;;;;6149635;23;20396;-90
2021/05/14 07:20:05;;;;;;;2.10;1.23;;;12.50;99.90;;;;;;6154301;23;20435;-96
2021/05/14 07:22:36;;;;;;;7.53;1.30;;;12.60;99.90;;;;;;6149223;23;20533;-95
2021/05/14 07:25:06;;;;;;;1.23;1.03;;;12.80;99.90;;;;;;6148186;23;20506;-94
2021/05/14 07:27:32;;;;;;;6.20;1.77;;;12.40;99.90;;;;;;6147972;23;20726;-94
2021/05/14 07:29:57;;;;;;;1.50;1.40;;;12.40;99.90;;;;;;6147551;23;20376;-95
2021/05/14 07:32:23;;;;;;;0.97;0.93;;;12.70;99.90;;;;;;6147716;23;20172;-94
2021/05/14 07:34:49;;;;;;;1.70;1.00;;;13.00;99.90;;;;;;6147582;23;20161;-94
2021/05/14 07:37:14;;;;;;;3.17;1.30;;;13.00;99.90;;;;;;6147327;23;20227;-93
2021/05/14 07:39:41;;;;;;;0.90;0.90;;;12.80;99.90;;;;;;6146905;23;20193;-93
2021/05/14 07:42:07;;;;;;;1.50;1.27;;;13.10;99.90;;;;;;6147337;23;20196;-94
2021/05/14 07:44:33;;;;;;;13.13;2.30;;;13.20;99.90;;;;;;6147554;23;20694;-94
2021/05/14 07:46:59;;;;;;;2.70;1.30;;;13.40;99.90;;;;;;6147746;23;20477;-93
2021/05/14 07:49:25;;;;;;;3.53;1.23;;;13.60;99.90;;;;;;6147475;23;20396;-94
2021/05/14 07:51:50;;;;;;;2.13;1.30;;;13.90;99.90;;;;;;6147812;23;20412;-94
2021/05/14 07:54:16;;;;;;;2.20;1.10;;;14.30;99.90;;;;;;6147083;23;20161;-94
2021/05/14 07:56:42;;;;;;;1.20;1.10;;;14.70;99.90;;;;;;6148053;23;20228;-95
2021/05/14 07:59:08;;;;;;;1.37;0.90;;;14.60;99.90;;;;;;6148155;23;20168;-95
2021/05/14 08:01:34;;;;;;;1.53;0.93;;;14.60;99.90;;;;;;6147010;23;20561;-95
2021/05/14 08:04:00;;;;;;;5.50;1.43;;;14.40;99.90;;;;;;6120822;23;20436;-94
2021/05/14 08:06:26;;;;;;;1.47;1.10;;;14.10;99.90;;;;;;6122578;23;20409;-93
2021/05/14 08:08:52;;;;;;;1.93;1.20;;;14.40;99.90;;;;;;6122661;23;20172;-93
2021/05/14 08:11:18;;;;;;;1.30;1.20;;;14.50;99.90;;;;;;6122901;23;20172;-94
2021/05/14 08:13:43;;;;;;;1.87;0.97;;;14.30;99.90;;;;;;6122813;23;21793;-94
2021/05/14 08:16:09;;;;;;;1.27;1.17;;;14.30;99.90;;;;;;6121847;23;20167;-94
2021/05/14 08:18:34;;;;;;;2.10;0.90;;;14.20;99.90;;;;;;6122863;23;20260;-94
2021/05/14 08:21:00;;;;;;;3.90;1.40;;;13.90;99.90;;;;;;6122307;23;20185;-92
2021/05/14 08:23:26;;;;;;;1.67;0.80;;;14.10;99.90;;;;;;6122711;23;20180;-94
2021/05/14 08:25:52;;;;;;;0.90;0.90;;;14.40;99.90;;;;;;6121206;23;20168;-93
2021/05/14 08:28:19;;;;;;;4.43;1.47;;;14.80;99.90;;;;;;6122867;23;20401;-92
2021/05/14 08:30:46;;;;;;;1.43;1.20;;;15.20;99.90;;;;;;6122132;23;20169;-93
2021/05/14 08:33:11;;;;;;;2.10;1.40;;;15.40;99.90;;;;;;6122182;23;20411;-92
2021/05/14 08:35:38;;;;;;;0.90;0.90;;;15.40;99.70;;;;;;6119895;23;20408;-92
2021/05/14 08:38:05;;;;;;;2.30;1.00;;;15.10;99.50;;;;;;6121796;23;20172;-92
2021/05/14 08:40:32;;;;;;;4.30;1.00;;;14.80;99.30;;;;;;6116820;23;20467;-92
2021/05/14 08:42:58;;;;;;;10.37;1.53;;;14.80;99.50;;;;;;6120708;23;20954;-92
2021/05/14 08:45:24;;;;;;;2.53;1.03;;;15.00;99.30;;;;;;6121685;23;20389;-93
2021/05/14 08:47:54;;;;;;;0.93;0.70;;;15.10;98.70;;;;;;6120842;23;20781;-92
2021/05/14 08:50:20;;;;;;;1.73;0.70;;;15.10;96.90;;;;;;6121608;23;20535;-92
2021/05/14 08:52:47;;;;;;;2.30;0.60;;;15.20;97.50;;;;;;6120813;23;20883;-91
2021/05/14 08:55:13;;;;;;;1.40;0.80;;;15.20;97.20;;;;;;6119861;23;20409;-92
2021/05/14 08:57:40;;;;;;;0.60;0.60;;;14.90;97.30;;;;;;6121912;23;20790;-93
2021/05/14 09:00:08;;;;;;;2.10;0.80;;;15.00;96.90;;;;;;6122069;23;20408;-93
2021/05/14 09:02:35;;;;;;;1.87;0.70;;;15.10;96.40;;;;;;6131684;23;20450;-93
2021/05/14 09:05:33;;;;;;;1.37;0.50;;;15.00;95.40;;;;;;6145454;23;20854;-92
2021/05/14 09:08:00;;;;;;;0.60;0.30;;;14.60;95.80;;;;;;6146095;23;20471;-93
2021/05/14 09:10:27;;;;;;;1.67;0.70;;;14.60;96.00;;;;;;6145584;23;20397;-93
2021/05/14 09:12:54;;;;;;;0.57;0.40;;;14.30;96.20;;;;;;6147181;23;20779;-93
2021/05/14 09:15:34;;;;;;;0.40;0.40;;;14.40;96.90;;;;;;6146626;23;20863;-93
2021/05/14 09:18:16;;;;;;;0.60;0.50;;;15.00;96.50;;;;;;6146286;23;20419;-93
2021/05/14 09:20:47;;;;;;;1.90;0.43;;;15.30;95.40;;;;;;6140171;23;20430;-92
2021/05/14 09:23:15;;;;;;;2.40;0.80;;;15.10;95.30;;;;;;6145898;23;20408;-92
2021/05/14 09:26:06;;;;;;;0.63;0.60;;;15.10;95.30;;;;;;6145374;23;20400;-94
2021/05/14 09:28:40;;;;;;;0.37;0.37;;;15.70;94.40;;;;;;6145453;23;20401;-92
2021/05/14 09:31:10;;;;;;;2.17;0.60;;;15.60;93.90;;;;;;6145819;23;20408;-92
2021/05/14 09:33:38;;;;;;;1.70;0.50;;;15.90;93.60;;;;;;6145209;23;20420;-92
2021/05/14 09:36:10;;;;;;;2.60;0.60;;;15.80;94.10;;;;;;6144980;23;20719;-92
2021/05/14 09:38:45;;;;;;;0.80;0.50;;;16.10;94.40;;;;;;6145450;23;20443;-93
2021/05/14 09:41:38;;;;;;;2.93;0.60;;;17.00;94.40;;;;;;6144685;23;20436;-93
2021/05/14 09:44:20;;;;;;;4.57;1.20;;;17.40;93.30;;;;;;6144996;23;20593;-90
2021/05/14 09:46:57;;;;;;;0.43;0.43;;;17.50;92.20;;;;;;6145648;23;20412;-95
2021/05/14 09:49:24;;;;;;;0.60;0.50;;;17.30;91.40;;;;;;6145761;23;20380;-94
2021/05/14 09:51:51;;;;;;;1.77;0.60;;;17.00;91.90;;;;;;6139503;23;20420;-94
2021/05/14 09:54:26;;;;;;;1.20;0.37;;;17.00;92.00;;;;;;6139657;23;20392;-91
2021/05/14 09:57:32;;;;;;;1.50;0.40;;;17.10;92.10;;;;;;6141019;23;20511;-91
2021/05/14 10:00:08;;;;;;;1.17;0.60;;;16.40;91.30;;;;;;6140074;23;20903;-91
2021/05/14 10:02:37;;;;;;;2.47;0.50;;;16.70;91.70;;;;;;6141146;23;20562;-92
2021/05/14 10:05:21;;;;;;;0.50;0.40;;;17.30;92.80;;;;;;6145756;23;20731;-93
2021/05/14 10:07:47;;;;;;;2.20;0.60;;;17.60;91.10;;;;;;6147488;23;20397;-92
2021/05/14 10:10:13;;;;;;;1.67;0.90;;;17.30;89.70;;;;;;6145228;23;20400;-92
2021/05/14 10:12:39;;;;;;;1.90;0.67;;;17.50;89.60;;;;;;6144482;23;20172;-92
2021/05/14 10:15:12;;;;;;;2.23;0.50;;;17.70;91.20;;;;;;6142824;23;20165;-91
2021/05/14 10:17:39;;;;;;;3.57;0.93;;;18.10;90.30;;;;;;6143078;23;20435;-93
2021/05/14 10:20:11;;;;;;;1.17;0.70;;;17.70;86.70;;;;;;6142906;23;20760;-92
2021/05/14 10:22:37;;;;;;;1.30;0.70;;;16.80;90.00;;;;;;6142690;23;20479;-94
2021/05/14 10:25:03;;;;;;;2.13;0.60;;;16.20;91.30;;;;;;6141511;23;20901;-92
2021/05/14 10:27:37;;;;;;;1.30;0.73;;;15.60;92.00;;;;;;6142413;23;20412;-94
2021/05/14 10:30:04;;;;;;;1.30;1.20;;;15.50;92.30;;;;;;6142694;23;20165;-92
2021/05/14 10:32:45;;;;;;;0.80;0.80;;;15.20;92.30;;;;;;6142281;23;20451;-93
2021/05/14 10:35:13;;;;;;;0.57;0.57;;;15.00;93.70;;;;;;6142009;23;20400;-94
2021/05/14 10:37:54;;;;;;;1.50;0.67;;;14.80;95.80;;;;;;6142029;23;20401;-95
2021/05/14 10:40:41;;;;;;;0.87;0.50;;;14.50;99.10;;;;;;6142230;23;20400;-93
2021/05/14 10:43:13;;;;;;;1.50;0.60;;;13.70;99.90;;;;;;6142844;23;20412;-90
2021/05/14 10:45:47;;;;;;;0.40;0.40;;;13.70;99.90;;;;;;6142151;23;20400;-92
2021/05/14 10:48:23;;;;;;;0.77;0.60;;;13.60;99.90;;;;;;6139763;23;20855;-90
2021/05/14 10:51:00;;;;;;;0.70;0.60;;;13.60;99.90;;;;;;6144126;23;20416;-89
2021/05/14 10:53:36;;;;;;;1.20;0.90;;;13.80;99.90;;;;;;6141435;23;20507;-92
2021/05/14 10:56:11;;;;;;;1.67;0.50;;;14.20;99.90;;;;;;6142806;23;20504;-93
2021/05/14 10:58:47;;;;;;;2.10;0.60;;;14.50;98.80;;;;;;6141383;23;20416;-92
2021/05/14 11:01:33;;;;;;;1.90;1.10;;;14.90;98.40;;;;;;6141794;23;20530;-93
2021/05/14 11:04:04;;;;;;;2.83;0.70;;;15.00;97.50;;;;;;6140652;23;20597;-94
2021/05/14 11:06:43;;;;;;;1.43;0.63;;;15.40;98.30;;;;;;6140840;23;20408;-92
2021/05/14 11:09:10;;;;;;;1.93;0.80;;;16.00;98.40;;;;;;6140149;23;20474;-93
2021/05/14 11:12:05;;;;;;;1.27;0.50;;;16.30;98.50;;;;;;6141231;23;20404;-92
2021/05/14 11:14:44;;;;;;;0.70;0.43;;;16.60;98.00;;;;;;6140103;23;20914;-92
2021/05/14 11:17:12;;;;;;;5.07;0.90;;;16.70;97.40;;;;;;6141270;23;20411;-93
2021/05/14 11:19:46;;;;;;;1.13;0.50;;;16.80;97.40;;;;;;6141394;23;20412;-92
2021/05/14 11:22:17;;;;;;;152.07;11.23;;;16.80;96.10;;;;;;6141084;23;21018;-93
2021/05/14 11:24:54;;;;;;;1.10;0.80;;;17.10;95.30;;;;;;6140905;23;20739;-93
2021/05/14 11:27:28;;;;;;;6.73;1.00;;;17.10;94.90;;;;;;6141382;23;20388;-93
2021/05/14 11:29:55;;;;;;;0.40;0.40;;;17.30;94.10;;;;;;6141830;23;20436;-93
2021/05/14 11:32:27;;;;;;;0.50;0.50;;;17.30;90.10;;;;;;6140773;23;20885;-93
2021/05/14 11:35:06;;;;;;;1.13;0.50;;;18.00;93.30;;;;;;6141857;23;20419;-94
2021/05/14 11:37:56;;;;;;;1.17;0.87;;;18.40;87.90;;;;;;6141860;23;20414;-92
2021/05/14 11:40:34;;;;;;;0.40;0.40;;;18.30;90.40;;;;;;6141233;23;20414;-91
2021/05/14 11:43:04;;;;;;;0.83;0.40;;;17.40;89.30;;;;;;6140716;23;20458;-91
2021/05/14 11:45:36;;;;;;;0.90;0.50;;;17.10;88.50;;;;;;6141101;23;20495;-93
2021/05/14 11:48:18;;;;;;;1.27;0.63;;;16.80;91.50;;;;;;6141432;23;20412;-92
2021/05/14 11:50:48;;;;;;;1.00;0.60;;;16.90;93.00;;;;;;6140709;23;20396;-92
2021/05/14 11:53:15;;;;;;;2.60;1.27;;;16.90;93.50;;;;;;6140818;23;20436;-93
2021/05/14 11:55:42;;;;;;;0.60;0.60;;;16.80;94.10;;;;;;6140536;23;20393;-91
2021/05/14 11:58:08;;;;;;;0.83;0.83;;;17.10;93.80;;;;;;6141466;23;20416;-92
2021/05/14 12:00:38;;;;;;;1.07;0.53;;;16.80;93.30;;;;;;6140434;23;20720;-93
2021/05/14 12:03:06;;;;;;;1.80;0.83;;;16.70;93.90;;;;;;6140692;23;20436;-92
2021/05/14 12:05:33;;;;;;;0.93;0.60;;;16.80;93.20;;;;;;6140984;23;20463;-95
2021/05/14 12:08:18;;;;;;;1.03;0.70;;;17.70;95.80;;;;;;6140829;23;20420;-92
2021/05/14 12:11:00;;;;;;;0.67;0.40;;;19.30;93.10;;;;;;6140360;23;20440;-92
2021/05/14 12:13:40;;;;;;;0.63;0.50;;;20.30;93.20;;;;;;6140512;23;20723;-93
2021/05/14 12:16:07;;;;;;;2.43;0.60;;;20.70;91.60;;;;;;6139416;23;20439;-93
2021/05/14 12:18:35;;;;;;;1.00;0.50;;;21.00;91.20;;;;;;6141126;23;20408;-92
2021/05/14 12:21:03;;;;;;;8.97;1.33;;;21.00;87.30;;;;;;6116091;23;20432;-93
2021/05/14 12:23:30;;;;;;;1.17;0.77;;;21.30;90.10;;;;;;6139917;23;20828;-92
2021/05/14 12:26:01;;;;;;;1.33;0.80;;;21.80;89.50;;;;;;6140642;23;20847;-93
2021/05/14 12:28:33;;;;;;;0.90;0.70;;;21.60;83.50;;;;;;6140728;23;20408;-93
2021/05/14 12:31:00;;;;;;;0.70;0.70;;;21.10;74.30;;;;;;6141024;23;20474;-93
2021/05/14 12:33:27;;;;;;;0.63;0.43;;;20.90;87.50;;;;;;6138342;23;20467;-92
2021/05/14 12:36:06;;;;;;;0.80;0.60;;;20.80;90.60;;;;;;6140733;23;20404;-93
2021/05/14 12:38:49;;;;;;;0.80;0.60;;;21.40;89.00;;;;;;6140459;23;20404;-91
2021/05/14 12:41:21;;;;;;;2.13;0.60;;;20.80;81.50;;;;;;6139584;23;20491;-91
2021/05/14 12:43:47;;;;;;;1.80;0.60;;;20.20;80.40;;;;;;6140205;23;20404;-93
2021/05/14 12:46:13;;;;;;;0.90;0.80;;;19.80;83.90;;;;;;6141054;23;20431;-92
2021/05/14 12:48:38;;;;;;;0.60;0.60;;;20.10;82.80;;;;;;6139692;23;20791;-93
2021/05/14 12:51:07;;;;;;;1.50;0.60;;;20.20;83.40;;;;;;6140949;23;20157;-93
2021/05/14 12:53:32;;;;;;;2.87;0.77;;;20.40;82.40;;;;;;6141161;23;20239;-96
2021/05/14 12:55:58;;;;;;;1.50;0.50;;;21.00;81.50;;;;;;6141349;23;20408;-95
2021/05/14 12:58:24;;;;;;;2.17;0.90;;;21.00;76.30;;;;;;6140581;23;20560;-95
2021/05/14 13:00:51;;;;;;;1.07;0.73;;;20.50;76.40;;;;;;6141732;23;20173;-94
2021/05/14 13:03:28;;;;;;;2.10;0.80;;;20.00;73.60;;;;;;6142293;23;20245;-95
2021/05/14 13:05:57;;;;;;;2.00;0.63;;;20.00;74.50;;;;;;6128963;23;20384;-92
2021/05/14 13:08:25;;;;;;;2.87;0.70;;;20.70;79.30;;;;;;6116268;23;20408;-94
2021/05/14 13:11:01;;;;;;;4.07;0.80;;;21.30;81.20;;;;;;6142792;23;20396;-95
2021/05/14 13:13:28;;;;;;;0.90;0.77;;;21.70;78.80;;;;;;6116180;23;20422;-95